Salt Lake City, Utah
Current Conditions -  °F | °C
As of 2:53 PM on Monday 22 Dec 2014 (Local Time) from KSLC Reporting Station
Broken Clouds Broken Clouds  
Wind Chill: 36°   Ceiling: 7500
Heat Index: 45°   Visibility: 10mi
Dew Point: 31°   Wind: 25mph
Humidity: 58%   Direction: 310°NW
Pressure: 29.98"   Gusts: NA
Location:  40.76°N, 111.88°W
Report Text: KSLC 222153Z 31022KT 10SM SCT044TCU SCT060 BKN075 07/M01 A2998 RMK AO2 PK WND 31029/2151 RAB2058E08B11E25GSB08E14 SLP145 VIRGA DSNT SW AND NW TCU NW-SE AND DSNT W SH VC E-SE P0000 T00721006
Loading
Personal Weather Stations






























Interactive Weather Map New forecast layout! Learn more

10-Day Weather Forecast

Advertisements
Track Severe Weather on mobile